sensor_id;sensor_type;location;lat;lon;timestamp;P1;durP1;ratioP1;P2;durP2;ratioP2
81952;SDS011;71454;55.476;14.282;2023-09-30T00:01:45;15.65;;;2.80;;
81952;SDS011;71454;55.476;14.282;2023-09-30T00:04:14;10.30;;;2.33;;
81952;SDS011;71454;55.476;14.282;2023-09-30T00:06:40;9.93;;;2.10;;
81952;SDS011;71454;55.476;14.282;2023-09-30T00:09:05;10.52;;;2.30;;
81952;SDS011;71454;55.476;14.282;2023-09-30T00:11:33;14.00;;;2.20;;
81952;SDS011;71454;55.476;14.282;2023-09-30T00:13:59;12.90;;;2.72;;
81952;SDS011;71454;55.476;14.282;2023-09-30T00:16:25;15.90;;;3.47;;
81952;SDS011;71454;55.476;14.282;2023-09-30T00:18:50;14.30;;;2.70;;
81952;SDS011;71454;55.476;14.282;2023-09-30T00:21:16;13.60;;;2.80;;
81952;SDS011;71454;55.476;14.282;2023-09-30T00:23:42;13.05;;;2.72;;
81952;SDS011;71454;55.476;14.282;2023-09-30T00:26:07;11.82;;;2.40;;
81952;SDS011;71454;55.476;14.282;2023-09-30T00:28:33;8.55;;;2.20;;
81952;SDS011;71454;55.476;14.282;2023-09-30T00:30:58;12.32;;;2.53;;
81952;SDS011;71454;55.476;14.282;2023-09-30T00:33:24;13.27;;;2.42;;
81952;SDS011;71454;55.476;14.282;2023-09-30T00:35:50;11.07;;;2.33;;
81952;SDS011;71454;55.476;14.282;2023-09-30T00:38:15;11.98;;;2.70;;
81952;SDS011;71454;55.476;14.282;2023-09-30T00:40:47;13.98;;;2.63;;
81952;SDS011;71454;55.476;14.282;2023-09-30T00:43:20;14.65;;;2.45;;
81952;SDS011;71454;55.476;14.282;2023-09-30T00:45:46;13.57;;;2.38;;
81952;SDS011;71454;55.476;14.282;2023-09-30T00:48:13;12.68;;;2.72;;
81952;SDS011;71454;55.476;14.282;2023-09-30T00:50:38;17.20;;;2.50;;
81952;SDS011;71454;55.476;14.282;2023-09-30T00:53:05;10.68;;;2.30;;
81952;SDS011;71454;55.476;14.282;2023-09-30T00:55:30;16.05;;;2.50;;
81952;SDS011;71454;55.476;14.282;2023-09-30T00:57:56;11.13;;;2.20;;
81952;SDS011;71454;55.476;14.282;2023-09-30T01:00:22;15.00;;;3.00;;
81952;SDS011;71454;55.476;14.282;2023-09-30T01:02:50;11.38;;;2.47;;
81952;SDS011;71454;55.476;14.282;2023-09-30T01:05:18;14.50;;;2.60;;
81952;SDS011;71454;55.476;14.282;2023-09-30T01:07:43;11.73;;;2.25;;
81952;SDS011;71454;55.476;14.282;2023-09-30T01:10:09;15.13;;;2.60;;
81952;SDS011;71454;55.476;14.282;2023-09-30T01:12:35;12.38;;;2.40;;
81952;SDS011;71454;55.476;14.282;2023-09-30T01:15:00;16.30;;;3.20;;
81952;SDS011;71454;55.476;14.282;2023-09-30T01:17:25;16.83;;;3.20;;
81952;SDS011;71454;55.476;14.282;2023-09-30T01:19:51;16.40;;;2.65;;
81952;SDS011;71454;55.476;14.282;2023-09-30T01:22:17;17.50;;;3.55;;
81952;SDS011;71454;55.476;14.282;2023-09-30T01:24:42;15.60;;;2.55;;
81952;SDS011;71454;55.476;14.282;2023-09-30T01:27:08;14.30;;;2.90;;
81952;SDS011;71454;55.476;14.282;2023-09-30T01:29:34;14.02;;;2.75;;
81952;SDS011;71454;55.476;14.282;2023-09-30T01:32:03;14.27;;;2.60;;
81952;SDS011;71454;55.476;14.282;2023-09-30T01:34:32;14.45;;;2.38;;
81952;SDS011;71454;55.476;14.282;2023-09-30T01:36:58;15.95;;;2.65;;
81952;SDS011;71454;55.476;14.282;2023-09-30T01:39:23;10.02;;;2.33;;
81952;SDS011;71454;55.476;14.282;2023-09-30T01:41:48;12.15;;;2.03;;
81952;SDS011;71454;55.476;14.282;2023-09-30T01:44:14;12.98;;;2.42;;
81952;SDS011;71454;55.476;14.282;2023-09-30T01:46:39;12.10;;;2.38;;
81952;SDS011;71454;55.476;14.282;2023-09-30T01:49:05;10.07;;;2.35;;
81952;SDS011;71454;55.476;14.282;2023-09-30T01:51:30;16.25;;;2.72;;
81952;SDS011;71454;55.476;14.282;2023-09-30T01:53:56;14.70;;;2.50;;
81952;SDS011;71454;55.476;14.282;2023-09-30T01:56:21;14.18;;;3.10;;
81952;SDS011;71454;55.476;14.282;2023-09-30T01:58:47;17.00;;;2.72;;
81952;SDS011;71454;55.476;14.282;2023-09-30T02:01:13;17.35;;;3.08;;
81952;SDS011;71454;55.476;14.282;2023-09-30T02:03:38;10.05;;;2.40;;
81952;SDS011;71454;55.476;14.282;2023-09-30T02:06:04;14.35;;;3.00;;
81952;SDS011;71454;55.476;14.282;2023-09-30T02:08:29;15.48;;;2.75;;
81952;SDS011;71454;55.476;14.282;2023-09-30T02:10:55;15.38;;;2.42;;
81952;SDS011;71454;55.476;14.282;2023-09-30T02:13:20;15.18;;;3.05;;
81952;SDS011;71454;55.476;14.282;2023-09-30T02:15:46;18.42;;;2.75;;
81952;SDS011;71454;55.476;14.282;2023-09-30T02:18:11;15.52;;;2.97;;
81952;SDS011;71454;55.476;14.282;2023-09-30T02:20:37;14.00;;;3.00;;
81952;SDS011;71454;55.476;14.282;2023-09-30T02:23:06;17.10;;;3.00;;
81952;SDS011;71454;55.476;14.282;2023-09-30T02:25:32;12.25;;;3.03;;
81952;SDS011;71454;55.476;14.282;2023-09-30T02:27:58;14.80;;;2.92;;
81952;SDS011;71454;55.476;14.282;2023-09-30T02:30:26;17.02;;;2.97;;
81952;SDS011;71454;55.476;14.282;2023-09-30T02:32:52;13.32;;;2.72;;
81952;SDS011;71454;55.476;14.282;2023-09-30T02:35:18;12.43;;;2.40;;
81952;SDS011;71454;55.476;14.282;2023-09-30T02:37:45;18.70;;;3.33;;
81952;SDS011;71454;55.476;14.282;2023-09-30T02:40:11;17.80;;;2.80;;
81952;SDS011;71454;55.476;14.282;2023-09-30T02:42:36;12.05;;;3.17;;
81952;SDS011;71454;55.476;14.282;2023-09-30T02:45:03;16.95;;;2.50;;
81952;SDS011;71454;55.476;14.282;2023-09-30T02:47:29;17.33;;;2.78;;
81952;SDS011;71454;55.476;14.282;2023-09-30T02:49:56;13.75;;;2.97;;
81952;SDS011;71454;55.476;14.282;2023-09-30T02:52:22;14.65;;;2.83;;
81952;SDS011;71454;55.476;14.282;2023-09-30T02:54:48;12.82;;;2.33;;
81952;SDS011;71454;55.476;14.282;2023-09-30T02:57:14;15.73;;;2.63;;
81952;SDS011;71454;55.476;14.282;2023-09-30T02:59:40;11.85;;;2.55;;
81952;SDS011;71454;55.476;14.282;2023-09-30T03:02:05;18.83;;;2.75;;
81952;SDS011;71454;55.476;14.282;2023-09-30T03:04:31;15.82;;;2.65;;
81952;SDS011;71454;55.476;14.282;2023-09-30T03:06:57;17.13;;;2.78;;
81952;SDS011;71454;55.476;14.282;2023-09-30T03:09:23;16.42;;;3.00;;
81952;SDS011;71454;55.476;14.282;2023-09-30T03:11:48;15.38;;;2.63;;
81952;SDS011;71454;55.476;14.282;2023-09-30T03:14:14;17.50;;;3.03;;
81952;SDS011;71454;55.476;14.282;2023-09-30T03:16:40;13.70;;;2.42;;
81952;SDS011;71454;55.476;14.282;2023-09-30T03:19:06;18.80;;;3.38;;
81952;SDS011;71454;55.476;14.282;2023-09-30T03:21:33;17.50;;;2.97;;
81952;SDS011;71454;55.476;14.282;2023-09-30T03:24:04;19.90;;;3.30;;
81952;SDS011;71454;55.476;14.282;2023-09-30T03:26:30;15.15;;;2.90;;
81952;SDS011;71454;55.476;14.282;2023-09-30T03:28:56;17.42;;;3.75;;
81952;SDS011;71454;55.476;14.282;2023-09-30T03:31:21;16.45;;;3.80;;
81952;SDS011;71454;55.476;14.282;2023-09-30T03:33:50;16.95;;;2.70;;
81952;SDS011;71454;55.476;14.282;2023-09-30T03:36:19;17.33;;;3.28;;
81952;SDS011;71454;55.476;14.282;2023-09-30T03:38:50;17.35;;;2.90;;
81952;SDS011;71454;55.476;14.282;2023-09-30T03:41:19;15.90;;;2.80;;
81952;SDS011;71454;55.476;14.282;2023-09-30T03:43:44;14.20;;;2.63;;
81952;SDS011;71454;55.476;14.282;2023-09-30T03:46:10;13.05;;;3.08;;
81952;SDS011;71454;55.476;14.282;2023-09-30T03:48:37;17.20;;;2.65;;
81952;SDS011;71454;55.476;14.282;2023-09-30T03:51:14;11.93;;;2.47;;
81952;SDS011;71454;55.476;14.282;2023-09-30T03:53:46;17.00;;;4.07;;
81952;SDS011;71454;55.476;14.282;2023-09-30T03:56:11;15.30;;;2.95;;
81952;SDS011;71454;55.476;14.282;2023-09-30T03:58:38;12.18;;;2.60;;
81952;SDS011;71454;55.476;14.282;2023-09-30T04:01:04;14.73;;;2.40;;
81952;SDS011;71454;55.476;14.282;2023-09-30T04:03:29;14.63;;;2.58;;
81952;SDS011;71454;55.476;14.282;2023-09-30T04:05:57;15.77;;;2.45;;
81952;SDS011;71454;55.476;14.282;2023-09-30T04:08:23;16.30;;;2.88;;
81952;SDS011;71454;55.476;14.282;2023-09-30T04:10:48;12.32;;;3.20;;
81952;SDS011;71454;55.476;14.282;2023-09-30T04:13:14;17.33;;;2.70;;
81952;SDS011;71454;55.476;14.282;2023-09-30T04:15:39;19.52;;;3.22;;
81952;SDS011;71454;55.476;14.282;2023-09-30T04:18:05;18.05;;;3.45;;
81952;SDS011;71454;55.476;14.282;2023-09-30T04:20:30;14.13;;;2.53;;
81952;SDS011;71454;55.476;14.282;2023-09-30T04:22:56;16.88;;;2.47;;
81952;SDS011;71454;55.476;14.282;2023-09-30T04:25:22;16.80;;;2.60;;
81952;SDS011;71454;55.476;14.282;2023-09-30T04:27:51;15.07;;;2.65;;
81952;SDS011;71454;55.476;14.282;2023-09-30T04:30:17;15.00;;;2.58;;
81952;SDS011;71454;55.476;14.282;2023-09-30T04:32:43;18.88;;;2.40;;
81952;SDS011;71454;55.476;14.282;2023-09-30T04:35:09;17.23;;;2.45;;
81952;SDS011;71454;55.476;14.282;2023-09-30T04:37:36;11.23;;;2.03;;
81952;SDS011;71454;55.476;14.282;2023-09-30T04:40:06;17.95;;;2.53;;
81952;SDS011;71454;55.476;14.282;2023-09-30T04:42:34;16.48;;;2.97;;
81952;SDS011;71454;55.476;14.282;2023-09-30T04:45:03;18.48;;;2.70;;
81952;SDS011;71454;55.476;14.282;2023-09-30T04:47:32;16.50;;;2.50;;
81952;SDS011;71454;55.476;14.282;2023-09-30T04:49:58;18.77;;;2.63;;
81952;SDS011;71454;55.476;14.282;2023-09-30T04:52:23;13.63;;;2.38;;
81952;SDS011;71454;55.476;14.282;2023-09-30T04:54:52;8.82;;;2.22;;
81952;SDS011;71454;55.476;14.282;2023-09-30T04:57:18;19.45;;;2.78;;
81952;SDS011;71454;55.476;14.282;2023-09-30T04:59:44;12.00;;;3.22;;
81952;SDS011;71454;55.476;14.282;2023-09-30T05:02:09;14.95;;;2.35;;
81952;SDS011;71454;55.476;14.282;2023-09-30T05:04:36;15.98;;;2.80;;
81952;SDS011;71454;55.476;14.282;2023-09-30T05:07:01;15.95;;;2.58;;
81952;SDS011;71454;55.476;14.282;2023-09-30T05:09:28;15.35;;;2.63;;
81952;SDS011;71454;55.476;14.282;2023-09-30T05:11:54;14.00;;;3.25;;
81952;SDS011;71454;55.476;14.282;2023-09-30T05:14:20;12.90;;;3.30;;
81952;SDS011;71454;55.476;14.282;2023-09-30T05:16:46;15.13;;;2.38;;
81952;SDS011;71454;55.476;14.282;2023-09-30T05:19:12;15.52;;;2.50;;
81952;SDS011;71454;55.476;14.282;2023-09-30T05:21:37;14.00;;;2.58;;
81952;SDS011;71454;55.476;14.282;2023-09-30T05:24:04;17.75;;;2.42;;
81952;SDS011;71454;55.476;14.282;2023-09-30T05:26:32;16.17;;;2.42;;
81952;SDS011;71454;55.476;14.282;2023-09-30T05:28:58;14.82;;;2.40;;
81952;SDS011;71454;55.476;14.282;2023-09-30T05:31:24;14.27;;;3.03;;
81952;SDS011;71454;55.476;14.282;2023-09-30T05:33:50;21.65;;;2.83;;
81952;SDS011;71454;55.476;14.282;2023-09-30T05:36:15;17.73;;;2.47;;
81952;SDS011;71454;55.476;14.282;2023-09-30T05:38:40;16.60;;;2.70;;
81952;SDS011;71454;55.476;14.282;2023-09-30T05:41:07;9.52;;;1.90;;
81952;SDS011;71454;55.476;14.282;2023-09-30T05:43:32;16.17;;;2.20;;
81952;SDS011;71454;55.476;14.282;2023-09-30T05:46:01;12.25;;;1.95;;
81952;SDS011;71454;55.476;14.282;2023-09-30T05:48:30;15.77;;;2.65;;
81952;SDS011;71454;55.476;14.282;2023-09-30T05:50:55;14.45;;;2.00;;
81952;SDS011;71454;55.476;14.282;2023-09-30T05:53:21;16.17;;;2.00;;
81952;SDS011;71454;55.476;14.282;2023-09-30T05:55:47;15.35;;;2.83;;
81952;SDS011;71454;55.476;14.282;2023-09-30T05:58:14;14.18;;;2.25;;
81952;SDS011;71454;55.476;14.282;2023-09-30T06:00:41;17.45;;;3.15;;
81952;SDS011;71454;55.476;14.282;2023-09-30T06:03:09;15.20;;;2.03;;
81952;SDS011;71454;55.476;14.282;2023-09-30T06:05:38;11.27;;;1.83;;
81952;SDS011;71454;55.476;14.282;2023-09-30T06:08:07;12.88;;;2.17;;
81952;SDS011;71454;55.476;14.282;2023-09-30T06:10:35;12.32;;;1.98;;
81952;SDS011;71454;55.476;14.282;2023-09-30T06:13:03;18.20;;;2.92;;
81952;SDS011;71454;55.476;14.282;2023-09-30T06:15:29;14.32;;;2.40;;
81952;SDS011;71454;55.476;14.282;2023-09-30T06:17:55;19.90;;;2.17;;
81952;SDS011;71454;55.476;14.282;2023-09-30T06:20:21;11.32;;;1.77;;
81952;SDS011;71454;55.476;14.282;2023-09-30T06:22:47;16.70;;;2.20;;
81952;SDS011;71454;55.476;14.282;2023-09-30T06:25:19;14.65;;;2.28;;
81952;SDS011;71454;55.476;14.282;2023-09-30T06:27:46;15.63;;;2.40;;
81952;SDS011;71454;55.476;14.282;2023-09-30T06:30:12;16.75;;;2.75;;
81952;SDS011;71454;55.476;14.282;2023-09-30T06:32:39;11.93;;;1.90;;
81952;SDS011;71454;55.476;14.282;2023-09-30T06:35:05;9.05;;;1.58;;
81952;SDS011;71454;55.476;14.282;2023-09-30T06:37:34;12.68;;;2.15;;
81952;SDS011;71454;55.476;14.282;2023-09-30T06:40:00;12.13;;;2.10;;
81952;SDS011;71454;55.476;14.282;2023-09-30T06:42:29;11.95;;;2.25;;
81952;SDS011;71454;55.476;14.282;2023-09-30T06:44:54;11.93;;;2.58;;
81952;SDS011;71454;55.476;14.282;2023-09-30T06:47:19;12.95;;;2.45;;
81952;SDS011;71454;55.476;14.282;2023-09-30T06:49:46;14.82;;;2.45;;
81952;SDS011;71454;55.476;14.282;2023-09-30T06:52:12;8.30;;;2.03;;
81952;SDS011;71454;55.476;14.282;2023-09-30T06:54:38;12.27;;;2.28;;
81952;SDS011;71454;55.476;14.282;2023-09-30T06:57:05;12.88;;;2.35;;
81952;SDS011;71454;55.476;14.282;2023-09-30T06:59:34;11.93;;;2.33;;
81952;SDS011;71454;55.476;14.282;2023-09-30T07:01:59;15.98;;;2.70;;
81952;SDS011;71454;55.476;14.282;2023-09-30T07:04:25;12.57;;;2.80;;
81952;SDS011;71454;55.476;14.282;2023-09-30T07:06:52;14.32;;;2.20;;
81952;SDS011;71454;55.476;14.282;2023-09-30T07:09:18;13.18;;;2.22;;
81952;SDS011;71454;55.476;14.282;2023-09-30T07:11:44;18.17;;;2.15;;
81952;SDS011;71454;55.476;14.282;2023-09-30T07:14:10;14.93;;;2.58;;
81952;SDS011;71454;55.476;14.282;2023-09-30T07:16:36;13.10;;;2.28;;
81952;SDS011;71454;55.476;14.282;2023-09-30T07:19:01;10.88;;;2.40;;
81952;SDS011;71454;55.476;14.282;2023-09-30T07:21:28;13.68;;;2.63;;
81952;SDS011;71454;55.476;14.282;2023-09-30T07:23:53;10.30;;;2.17;;
81952;SDS011;71454;55.476;14.282;2023-09-30T07:26:23;14.05;;;1.95;;
81952;SDS011;71454;55.476;14.282;2023-09-30T07:31:14;14.20;;;2.25;;
81952;SDS011;71454;55.476;14.282;2023-09-30T07:33:39;11.63;;;2.17;;
81952;SDS011;71454;55.476;14.282;2023-09-30T07:36:05;11.38;;;2.90;;
81952;SDS011;71454;55.476;14.282;2023-09-30T07:38:30;17.30;;;1.98;;
81952;SDS011;71454;55.476;14.282;2023-09-30T07:40:56;13.20;;;2.00;;
81952;SDS011;71454;55.476;14.282;2023-09-30T07:43:21;10.65;;;1.92;;
81952;SDS011;71454;55.476;14.282;2023-09-30T07:45:47;13.93;;;2.63;;
81952;SDS011;71454;55.476;14.282;2023-09-30T07:48:13;8.82;;;1.88;;
81952;SDS011;71454;55.476;14.282;2023-09-30T07:50:39;11.30;;;2.00;;
81952;SDS011;71454;55.476;14.282;2023-09-30T07:53:04;15.57;;;2.05;;
81952;SDS011;71454;55.476;14.282;2023-09-30T07:55:31;13.70;;;2.42;;
81952;SDS011;71454;55.476;14.282;2023-09-30T07:57:56;11.07;;;1.88;;
81952;SDS011;71454;55.476;14.282;2023-09-30T08:00:24;10.75;;;2.30;;
81952;SDS011;71454;55.476;14.282;2023-09-30T08:02:50;11.43;;;2.10;;
81952;SDS011;71454;55.476;14.282;2023-09-30T08:05:16;15.93;;;2.45;;
81952;SDS011;71454;55.476;14.282;2023-09-30T08:07:42;13.50;;;2.90;;
81952;SDS011;71454;55.476;14.282;2023-09-30T08:10:07;13.13;;;2.20;;
81952;SDS011;71454;55.476;14.282;2023-09-30T08:12:38;13.52;;;2.40;;
81952;SDS011;71454;55.476;14.282;2023-09-30T08:15:03;9.85;;;1.92;;
81952;SDS011;71454;55.476;14.282;2023-09-30T08:17:31;11.98;;;2.03;;
81952;SDS011;71454;55.476;14.282;2023-09-30T08:19:57;9.65;;;1.90;;
81952;SDS011;71454;55.476;14.282;2023-09-30T08:22:25;18.80;;;2.55;;
81952;SDS011;71454;55.476;14.282;2023-09-30T08:24:53;13.40;;;2.13;;
81952;SDS011;71454;55.476;14.282;2023-09-30T08:27:19;13.98;;;2.15;;
81952;SDS011;71454;55.476;14.282;2023-09-30T08:29:44;11.32;;;1.95;;
81952;SDS011;71454;55.476;14.282;2023-09-30T08:32:13;9.05;;;1.70;;
81952;SDS011;71454;55.476;14.282;2023-09-30T08:34:38;13.00;;;1.98;;
81952;SDS011;71454;55.476;14.282;2023-09-30T08:37:04;15.20;;;2.10;;
81952;SDS011;71454;55.476;14.282;2023-09-30T08:39:29;13.52;;;2.40;;
81952;SDS011;71454;55.476;14.282;2023-09-30T08:41:55;13.95;;;2.35;;
81952;SDS011;71454;55.476;14.282;2023-09-30T08:44:21;15.20;;;2.42;;
81952;SDS011;71454;55.476;14.282;2023-09-30T08:46:47;10.80;;;1.98;;
81952;SDS011;71454;55.476;14.282;2023-09-30T08:49:13;11.63;;;2.10;;
81952;SDS011;71454;55.476;14.282;2023-09-30T08:51:39;10.07;;;1.92;;
81952;SDS011;71454;55.476;14.282;2023-09-30T08:54:05;13.50;;;2.35;;
81952;SDS011;71454;55.476;14.282;2023-09-30T08:56:31;9.55;;;1.77;;
81952;SDS011;71454;55.476;14.282;2023-09-30T08:59:00;12.20;;;2.10;;
81952;SDS011;71454;55.476;14.282;2023-09-30T09:01:27;11.40;;;2.20;;
81952;SDS011;71454;55.476;14.282;2023-09-30T09:03:54;14.25;;;1.88;;
81952;SDS011;71454;55.476;14.282;2023-09-30T09:06:22;13.45;;;1.80;;
81952;SDS011;71454;55.476;14.282;2023-09-30T09:08:49;12.43;;;2.15;;
81952;SDS011;71454;55.476;14.282;2023-09-30T09:11:14;8.63;;;2.28;;
81952;SDS011;71454;55.476;14.282;2023-09-30T09:13:47;11.52;;;1.73;;
81952;SDS011;71454;55.476;14.282;2023-09-30T09:16:18;10.18;;;2.10;;
81952;SDS011;71454;55.476;14.282;2023-09-30T09:18:44;13.32;;;1.95;;
81952;SDS011;71454;55.476;14.282;2023-09-30T09:21:15;10.60;;;1.80;;
81952;SDS011;71454;55.476;14.282;2023-09-30T09:23:54;10.68;;;1.95;;
81952;SDS011;71454;55.476;14.282;2023-09-30T09:26:27;11.73;;;1.70;;
81952;SDS011;71454;55.476;14.282;2023-09-30T09:28:59;15.30;;;2.33;;
81952;SDS011;71454;55.476;14.282;2023-09-30T09:31:35;14.55;;;1.73;;
81952;SDS011;71454;55.476;14.282;2023-09-30T09:34:01;12.02;;;1.85;;
81952;SDS011;71454;55.476;14.282;2023-09-30T09:36:41;16.20;;;2.10;;
81952;SDS011;71454;55.476;14.282;2023-09-30T09:39:08;13.50;;;2.03;;
81952;SDS011;71454;55.476;14.282;2023-09-30T09:41:54;10.23;;;1.70;;
81952;SDS011;71454;55.476;14.282;2023-09-30T09:44:21;12.40;;;1.70;;
81952;SDS011;71454;55.476;14.282;2023-09-30T09:46:53;8.43;;;2.00;;
81952;SDS011;71454;55.476;14.282;2023-09-30T09:49:19;10.05;;;1.73;;
81952;SDS011;71454;55.476;14.282;2023-09-30T09:51:46;10.75;;;1.55;;
81952;SDS011;71454;55.476;14.282;2023-09-30T09:54:12;10.95;;;1.90;;
81952;SDS011;71454;55.476;14.282;2023-09-30T09:56:38;9.40;;;1.65;;
81952;SDS011;71454;55.476;14.282;2023-09-30T09:59:04;15.23;;;1.95;;
81952;SDS011;71454;55.476;14.282;2023-09-30T10:01:31;9.73;;;1.50;;
81952;SDS011;71454;55.476;14.282;2023-09-30T10:03:59;12.55;;;1.92;;
81952;SDS011;71454;55.476;14.282;2023-09-30T10:06:25;12.18;;;2.40;;
81952;SDS011;71454;55.476;14.282;2023-09-30T10:08:51;7.80;;;1.77;;
81952;SDS011;71454;55.476;14.282;2023-09-30T10:11:17;11.52;;;1.77;;
81952;SDS011;71454;55.476;14.282;2023-09-30T10:13:50;9.55;;;1.88;;
81952;SDS011;71454;55.476;14.282;2023-09-30T10:19:11;10.93;;;1.83;;
81952;SDS011;71454;55.476;14.282;2023-09-30T10:22:26;7.95;;;1.60;;
81952;SDS011;71454;55.476;14.282;2023-09-30T10:24:45;14.70;;;2.10;;
81952;SDS011;71454;55.476;14.282;2023-09-30T10:35:18;12.05;;;2.15;;
81952;SDS011;71454;55.476;14.282;2023-09-30T10:37:47;11.02;;;1.75;;
81952;SDS011;71454;55.476;14.282;2023-09-30T10:40:28;12.68;;;2.00;;
81952;SDS011;71454;55.476;14.282;2023-09-30T10:50:49;11.27;;;1.77;;
81952;SDS011;71454;55.476;14.282;2023-09-30T10:53:20;7.97;;;1.48;;
81952;SDS011;71454;55.476;14.282;2023-09-30T10:55:46;8.93;;;1.60;;
81952;SDS011;71454;55.476;14.282;2023-09-30T10:58:14;8.95;;;1.40;;
81952;SDS011;71454;55.476;14.282;2023-09-30T11:00:51;7.25;;;1.30;;
81952;SDS011;71454;55.476;14.282;2023-09-30T11:03:19;9.02;;;1.95;;
81952;SDS011;71454;55.476;14.282;2023-09-30T11:05:49;8.38;;;1.50;;
81952;SDS011;71454;55.476;14.282;2023-09-30T11:08:17;10.00;;;1.20;;
81952;SDS011;71454;55.476;14.282;2023-09-30T11:10:51;10.55;;;2.08;;
81952;SDS011;71454;55.476;14.282;2023-09-30T11:13:18;8.88;;;1.45;;
81952;SDS011;71454;55.476;14.282;2023-09-30T11:15:45;9.70;;;1.52;;
81952;SDS011;71454;55.476;14.282;2023-09-30T11:20:39;8.50;;;1.92;;
81952;SDS011;71454;55.476;14.282;2023-09-30T11:23:06;6.45;;;1.17;;
81952;SDS011;71454;55.476;14.282;2023-09-30T11:25:34;10.43;;;1.45;;
81952;SDS011;71454;55.476;14.282;2023-09-30T11:28:16;10.00;;;2.45;;
81952;SDS011;71454;55.476;14.282;2023-09-30T11:30:55;7.18;;;1.40;;
81952;SDS011;71454;55.476;14.282;2023-09-30T11:33:21;12.68;;;1.52;;
81952;SDS011;71454;55.476;14.282;2023-09-30T11:38:31;9.73;;;1.48;;
81952;SDS011;71454;55.476;14.282;2023-09-30T11:41:01;10.10;;;1.45;;
81952;SDS011;71454;55.476;14.282;2023-09-30T11:43:30;9.05;;;1.05;;
81952;SDS011;71454;55.476;14.282;2023-09-30T11:46:09;7.60;;;1.60;;
81952;SDS011;71454;55.476;14.282;2023-09-30T11:48:40;8.73;;;1.20;;
81952;SDS011;71454;55.476;14.282;2023-09-30T11:51:29;10.32;;;1.67;;
81952;SDS011;71454;55.476;14.282;2023-09-30T11:53:56;7.60;;;1.20;;
81952;SDS011;71454;55.476;14.282;2023-09-30T11:56:25;12.38;;;1.42;;
81952;SDS011;71454;55.476;14.282;2023-09-30T11:58:54;7.30;;;1.13;;
81952;SDS011;71454;55.476;14.282;2023-09-30T12:01:21;12.20;;;1.90;;
81952;SDS011;71454;55.476;14.282;2023-09-30T12:03:49;7.82;;;1.40;;
81952;SDS011;71454;55.476;14.282;2023-09-30T12:06:16;8.07;;;1.65;;
81952;SDS011;71454;55.476;14.282;2023-09-30T12:08:42;7.65;;;1.30;;
81952;SDS011;71454;55.476;14.282;2023-09-30T12:11:08;9.95;;;2.28;;
81952;SDS011;71454;55.476;14.282;2023-09-30T12:13:38;9.25;;;1.30;;
81952;SDS011;71454;55.476;14.282;2023-09-30T12:16:03;7.97;;;1.55;;
81952;SDS011;71454;55.476;14.282;2023-09-30T12:18:29;8.90;;;1.70;;
81952;SDS011;71454;55.476;14.282;2023-09-30T12:20:55;9.50;;;1.35;;
81952;SDS011;71454;55.476;14.282;2023-09-30T12:23:21;8.23;;;1.20;;
81952;SDS011;71454;55.476;14.282;2023-09-30T12:25:47;7.70;;;1.48;;
81952;SDS011;71454;55.476;14.282;2023-09-30T12:28:13;7.05;;;1.20;;
81952;SDS011;71454;55.476;14.282;2023-09-30T12:30:42;8.60;;;1.20;;
81952;SDS011;71454;55.476;14.282;2023-09-30T12:33:08;7.68;;;1.48;;
81952;SDS011;71454;55.476;14.282;2023-09-30T12:35:34;7.90;;;1.20;;
81952;SDS011;71454;55.476;14.282;2023-09-30T12:38:00;7.80;;;1.25;;
81952;SDS011;71454;55.476;14.282;2023-09-30T12:40:25;7.43;;;1.85;;
81952;SDS011;71454;55.476;14.282;2023-09-30T12:42:51;8.98;;;1.75;;
81952;SDS011;71454;55.476;14.282;2023-09-30T12:45:17;8.35;;;1.30;;
81952;SDS011;71454;55.476;14.282;2023-09-30T12:47:43;7.93;;;1.40;;
81952;SDS011;71454;55.476;14.282;2023-09-30T12:50:09;10.70;;;1.65;;
81952;SDS011;71454;55.476;14.282;2023-09-30T12:52:37;8.27;;;1.40;;
81952;SDS011;71454;55.476;14.282;2023-09-30T12:55:03;9.05;;;1.40;;
81952;SDS011;71454;55.476;14.282;2023-09-30T12:57:30;11.60;;;1.45;;
81952;SDS011;71454;55.476;14.282;2023-09-30T12:59:55;8.63;;;1.60;;
81952;SDS011;71454;55.476;14.282;2023-09-30T13:02:21;9.82;;;1.50;;
81952;SDS011;71454;55.476;14.282;2023-09-30T13:04:46;9.45;;;1.92;;
81952;SDS011;71454;55.476;14.282;2023-09-30T13:07:12;6.88;;;1.33;;
81952;SDS011;71454;55.476;14.282;2023-09-30T13:09:38;11.15;;;1.33;;
81952;SDS011;71454;55.476;14.282;2023-09-30T13:12:04;12.70;;;1.90;;
81952;SDS011;71454;55.476;14.282;2023-09-30T13:14:30;7.68;;;1.40;;
81952;SDS011;71454;55.476;14.282;2023-09-30T13:16:55;6.47;;;1.58;;
81952;SDS011;71454;55.476;14.282;2023-09-30T13:19:21;10.52;;;1.73;;
81952;SDS011;71454;55.476;14.282;2023-09-30T13:21:47;10.82;;;1.80;;
81952;SDS011;71454;55.476;14.282;2023-09-30T13:24:16;10.25;;;1.50;;
81952;SDS011;71454;55.476;14.282;2023-09-30T13:26:41;7.82;;;1.58;;
81952;SDS011;71454;55.476;14.282;2023-09-30T13:29:07;7.50;;;1.10;;
81952;SDS011;71454;55.476;14.282;2023-09-30T13:31:35;8.60;;;1.20;;
81952;SDS011;71454;55.476;14.282;2023-09-30T13:34:07;6.93;;;1.20;;
81952;SDS011;71454;55.476;14.282;2023-09-30T13:36:33;10.93;;;1.50;;
81952;SDS011;71454;55.476;14.282;2023-09-30T13:38:59;5.10;;;0.98;;
81952;SDS011;71454;55.476;14.282;2023-09-30T13:41:24;9.57;;;1.42;;
81952;SDS011;71454;55.476;14.282;2023-09-30T13:43:49;6.88;;;1.15;;
81952;SDS011;71454;55.476;14.282;2023-09-30T13:46:15;9.32;;;1.20;;
81952;SDS011;71454;55.476;14.282;2023-09-30T13:48:41;9.73;;;1.60;;
81952;SDS011;71454;55.476;14.282;2023-09-30T13:51:07;7.57;;;1.27;;
81952;SDS011;71454;55.476;14.282;2023-09-30T13:53:33;9.90;;;1.83;;
81952;SDS011;71454;55.476;14.282;2023-09-30T13:55:59;6.55;;;1.35;;
81952;SDS011;71454;55.476;14.282;2023-09-30T13:58:28;8.75;;;1.92;;
81952;SDS011;71454;55.476;14.282;2023-09-30T14:00:54;8.70;;;1.77;;
81952;SDS011;71454;55.476;14.282;2023-09-30T14:03:22;7.55;;;1.23;;
81952;SDS011;71454;55.476;14.282;2023-09-30T14:05:50;8.68;;;1.23;;
81952;SDS011;71454;55.476;14.282;2023-09-30T14:08:16;15.27;;;1.33;;
81952;SDS011;71454;55.476;14.282;2023-09-30T14:10:42;8.32;;;1.30;;
81952;SDS011;71454;55.476;14.282;2023-09-30T14:13:09;6.13;;;1.40;;
81952;SDS011;71454;55.476;14.282;2023-09-30T14:15:35;8.02;;;1.58;;
81952;SDS011;71454;55.476;14.282;2023-09-30T14:18:00;7.25;;;1.23;;
81952;SDS011;71454;55.476;14.282;2023-09-30T14:20:27;8.52;;;1.10;;
81952;SDS011;71454;55.476;14.282;2023-09-30T14:22:52;6.90;;;1.27;;
81952;SDS011;71454;55.476;14.282;2023-09-30T14:25:20;6.18;;;1.05;;
81952;SDS011;71454;55.476;14.282;2023-09-30T14:27:46;6.53;;;1.17;;
81952;SDS011;71454;55.476;14.282;2023-09-30T14:30:12;8.65;;;1.45;;
81952;SDS011;71454;55.476;14.282;2023-09-30T14:32:38;9.00;;;1.20;;
81952;SDS011;71454;55.476;14.282;2023-09-30T14:35:05;6.45;;;1.25;;
81952;SDS011;71454;55.476;14.282;2023-09-30T14:37:31;7.53;;;1.85;;
81952;SDS011;71454;55.476;14.282;2023-09-30T14:39:57;10.27;;;1.50;;
81952;SDS011;71454;55.476;14.282;2023-09-30T14:42:22;11.63;;;1.90;;
81952;SDS011;71454;55.476;14.282;2023-09-30T14:44:50;11.07;;;1.60;;
81952;SDS011;71454;55.476;14.282;2023-09-30T14:47:15;11.38;;;1.55;;
81952;SDS011;71454;55.476;14.282;2023-09-30T14:49:41;8.88;;;1.60;;
81952;SDS011;71454;55.476;14.282;2023-09-30T14:52:06;10.38;;;1.35;;